Rhosgoch, United Kingdom
Current Conditions -  °F | °C
As of 7:50 PM on Wednesday 26 Nov 2014 (Local Time) from EGOV Reporting Station
Overcast Overcast  
Wind Chill: 45°   Ceiling: 4200
Heat Index: 45°   Visibility: 6mi
Dew Point: 43°   Wind: 2mph
Humidity: 93%   Direction: 80°E
Pressure: 29.8"   Gusts: NA
Location:  53.38°N, 4.39°W
Report Text: EGOV 261950Z 08002KT 9999 OVC042 07/06 Q1009 BLU
Loading
Personal Weather Stations






























Interactive Weather Map New forecast layout! Learn more

10-Day Weather Forecast

Advertisements
Track Severe Weather on mobile